sensor_id;sensor_type;location;lat;lon;timestamp;temperature;humidity
6407;DHT22;3236;51.022;6.818;2022-12-29T00:02:17;10.60;99.90
6407;DHT22;3236;51.022;6.818;2022-12-29T00:04:44;11.00;99.90
6407;DHT22;3236;51.022;6.818;2022-12-29T00:12:06;10.90;99.90
6407;DHT22;3236;51.022;6.818;2022-12-29T00:14:35;10.30;99.90
6407;DHT22;3236;51.022;6.818;2022-12-29T00:17:19;9.50;99.90
6407;DHT22;3236;51.022;6.818;2022-12-29T00:19:47;10.90;99.90
6407;DHT22;3236;51.022;6.818;2022-12-29T00:22:31;10.80;99.90
6407;DHT22;3236;51.022;6.818;2022-12-29T00:25:16;10.80;99.90
6407;DHT22;3236;51.022;6.818;2022-12-29T00:28:01;10.80;99.90
6407;DHT22;3236;51.022;6.818;2022-12-29T00:30:47;10.90;99.90
6407;DHT22;3236;51.022;6.818;2022-12-29T00:33:33;11.00;99.90
6407;DHT22;3236;51.022;6.818;2022-12-29T00:36:34;11.30;99.90
6407;DHT22;3236;51.022;6.818;2022-12-29T00:39:05;11.00;99.90
6407;DHT22;3236;51.022;6.818;2022-12-29T00:41:51;11.10;99.90
6407;DHT22;3236;51.022;6.818;2022-12-29T00:44:35;11.20;99.90
6407;DHT22;3236;51.022;6.818;2022-12-29T00:47:04;11.40;99.90
6407;DHT22;3236;51.022;6.818;2022-12-29T00:52:00;11.10;99.90
6407;DHT22;3236;51.022;6.818;2022-12-29T00:54:29;11.40;99.90
6407;DHT22;3236;51.022;6.818;2022-12-29T00:56:56;11.50;99.90
6407;DHT22;3236;51.022;6.818;2022-12-29T00:59:24;11.60;99.90
6407;DHT22;3236;51.022;6.818;2022-12-29T01:04:21;11.50;99.90
6407;DHT22;3236;51.022;6.818;2022-12-29T01:06:48;11.30;99.90
6407;DHT22;3236;51.022;6.818;2022-12-29T01:09:16;11.20;99.90
6407;DHT22;3236;51.022;6.818;2022-12-29T01:12:01;11.00;99.90
6407;DHT22;3236;51.022;6.818;2022-12-29T01:14:28;11.30;99.90
6407;DHT22;3236;51.022;6.818;2022-12-29T01:19:25;11.20;99.90
6407;DHT22;3236;51.022;6.818;2022-12-29T01:21:52;11.40;99.90
6407;DHT22;3236;51.022;6.818;2022-12-29T01:24:22;11.80;99.90
6407;DHT22;3236;51.022;6.818;2022-12-29T01:26:49;11.80;99.90
6407;DHT22;3236;51.022;6.818;2022-12-29T01:29:17;11.50;99.90
6407;DHT22;3236;51.022;6.818;2022-12-29T01:31:44;11.50;99.90
6407;DHT22;3236;51.022;6.818;2022-12-29T01:34:11;11.50;99.90
6407;DHT22;3236;51.022;6.818;2022-12-29T01:36:40;11.70;99.90
6407;DHT22;3236;51.022;6.818;2022-12-29T01:39:07;11.70;99.90
6407;DHT22;3236;51.022;6.818;2022-12-29T01:41:34;12.20;99.90
6407;DHT22;3236;51.022;6.818;2022-12-29T01:47:04;11.60;99.90
6407;DHT22;3236;51.022;6.818;2022-12-29T01:49:32;11.80;99.90
6407;DHT22;3236;51.022;6.818;2022-12-29T01:52:06;12.30;99.90
6407;DHT22;3236;51.022;6.818;2022-12-29T01:54:37;12.00;99.90
6407;DHT22;3236;51.022;6.818;2022-12-29T02:02:07;12.00;99.90
6407;DHT22;3236;51.022;6.818;2022-12-29T02:04:38;11.80;99.90
6407;DHT22;3236;51.022;6.818;2022-12-29T02:07:15;11.90;99.90
6407;DHT22;3236;51.022;6.818;2022-12-29T02:09:46;12.10;99.90
6407;DHT22;3236;51.022;6.818;2022-12-29T02:12:14;11.90;99.90
6407;DHT22;3236;51.022;6.818;2022-12-29T02:14:42;12.10;99.90
6407;DHT22;3236;51.022;6.818;2022-12-29T02:17:18;12.20;99.90
6407;DHT22;3236;51.022;6.818;2022-12-29T02:20:20;12.10;99.90
6407;DHT22;3236;51.022;6.818;2022-12-29T02:23:12;11.70;99.90
6407;DHT22;3236;51.022;6.818;2022-12-29T02:26:05;12.10;99.90
6407;DHT22;3236;51.022;6.818;2022-12-29T02:28:53;12.20;99.90
6407;DHT22;3236;51.022;6.818;2022-12-29T02:31:28;12.30;99.90
6407;DHT22;3236;51.022;6.818;2022-12-29T02:34:06;12.40;99.90
6407;DHT22;3236;51.022;6.818;2022-12-29T02:36:43;12.30;99.90
6407;DHT22;3236;51.022;6.818;2022-12-29T02:39:19;12.30;99.90
6407;DHT22;3236;51.022;6.818;2022-12-29T02:41:57;12.50;99.90
6407;DHT22;3236;51.022;6.818;2022-12-29T02:44:29;11.90;99.90
6407;DHT22;3236;51.022;6.818;2022-12-29T02:47:08;11.80;99.90
6407;DHT22;3236;51.022;6.818;2022-12-29T02:49:42;12.20;99.90
6407;DHT22;3236;51.022;6.818;2022-12-29T02:52:22;12.20;99.90
6407;DHT22;3236;51.022;6.818;2022-12-29T02:54:54;12.60;99.90
6407;DHT22;3236;51.022;6.818;2022-12-29T02:57:30;12.20;99.90
6407;DHT22;3236;51.022;6.818;2022-12-29T03:00:02;12.00;99.90
6407;DHT22;3236;51.022;6.818;2022-12-29T03:03:00;12.10;99.90
6407;DHT22;3236;51.022;6.818;2022-12-29T03:05:48;12.10;99.90
6407;DHT22;3236;51.022;6.818;2022-12-29T03:10:59;11.90;99.90
6407;DHT22;3236;51.022;6.818;2022-12-29T03:13:33;13.20;99.90
6407;DHT22;3236;51.022;6.818;2022-12-29T03:16:23;12.10;99.90
6407;DHT22;3236;51.022;6.818;2022-12-29T03:18:59;11.80;99.90
6407;DHT22;3236;51.022;6.818;2022-12-29T03:21:32;11.90;99.90
6407;DHT22;3236;51.022;6.818;2022-12-29T03:24:20;11.80;99.90
6407;DHT22;3236;51.022;6.818;2022-12-29T03:26:49;11.90;99.90
6407;DHT22;3236;51.022;6.818;2022-12-29T03:29:18;11.50;99.90
6407;DHT22;3236;51.022;6.818;2022-12-29T03:31:48;11.80;99.90
6407;DHT22;3236;51.022;6.818;2022-12-29T03:34:20;11.80;99.90
6407;DHT22;3236;51.022;6.818;2022-12-29T03:36:50;11.70;99.90
6407;DHT22;3236;51.022;6.818;2022-12-29T03:39:22;11.80;99.90
6407;DHT22;3236;51.022;6.818;2022-12-29T03:41:58;11.80;99.90
6407;DHT22;3236;51.022;6.818;2022-12-29T03:44:32;11.60;99.90
6407;DHT22;3236;51.022;6.818;2022-12-29T03:47:00;11.30;99.90
6407;DHT22;3236;51.022;6.818;2022-12-29T03:49:28;11.70;99.90
6407;DHT22;3236;51.022;6.818;2022-12-29T03:51:55;11.40;99.90
6407;DHT22;3236;51.022;6.818;2022-12-29T03:54:25;11.90;99.90
6407;DHT22;3236;51.022;6.818;2022-12-29T03:56:52;11.70;99.90
6407;DHT22;3236;51.022;6.818;2022-12-29T03:59:23;11.70;99.90
6407;DHT22;3236;51.022;6.818;2022-12-29T04:01:50;11.60;99.90
6407;DHT22;3236;51.022;6.818;2022-12-29T04:04:17;11.70;99.90
6407;DHT22;3236;51.022;6.818;2022-12-29T04:06:45;11.90;99.90
6407;DHT22;3236;51.022;6.818;2022-12-29T04:09:13;11.60;99.90
6407;DHT22;3236;51.022;6.818;2022-12-29T04:11:46;11.80;99.90
6407;DHT22;3236;51.022;6.818;2022-12-29T04:14:16;12.10;99.90
6407;DHT22;3236;51.022;6.818;2022-12-29T04:16:43;12.00;99.90
6407;DHT22;3236;51.022;6.818;2022-12-29T04:19:12;11.50;99.90
6407;DHT22;3236;51.022;6.818;2022-12-29T04:21:42;11.70;99.90
6407;DHT22;3236;51.022;6.818;2022-12-29T04:24:10;11.70;99.90
6407;DHT22;3236;51.022;6.818;2022-12-29T04:26:38;12.00;99.90
6407;DHT22;3236;51.022;6.818;2022-12-29T04:29:05;11.80;99.90
6407;DHT22;3236;51.022;6.818;2022-12-29T04:31:32;11.90;99.90
6407;DHT22;3236;51.022;6.818;2022-12-29T04:33:59;11.70;99.90
6407;DHT22;3236;51.022;6.818;2022-12-29T04:36:33;12.00;99.90
6407;DHT22;3236;51.022;6.818;2022-12-29T04:39:00;12.00;99.90
6407;DHT22;3236;51.022;6.818;2022-12-29T04:41:29;12.60;99.90
6407;DHT22;3236;51.022;6.818;2022-12-29T04:43:56;12.20;99.90
6407;DHT22;3236;51.022;6.818;2022-12-29T04:46:23;12.30;99.90
6407;DHT22;3236;51.022;6.818;2022-12-29T04:48:50;12.30;99.90
6407;DHT22;3236;51.022;6.818;2022-12-29T04:51:18;12.50;99.90
6407;DHT22;3236;51.022;6.818;2022-12-29T04:53:45;12.10;99.90
6407;DHT22;3236;51.022;6.818;2022-12-29T04:56:12;12.00;99.90
6407;DHT22;3236;51.022;6.818;2022-12-29T04:58:41;12.50;99.90
6407;DHT22;3236;51.022;6.818;2022-12-29T05:01:08;12.70;99.90
6407;DHT22;3236;51.022;6.818;2022-12-29T05:03:35;12.60;99.90
6407;DHT22;3236;51.022;6.818;2022-12-29T05:06:02;12.30;99.90
6407;DHT22;3236;51.022;6.818;2022-12-29T05:08:29;12.50;99.90
6407;DHT22;3236;51.022;6.818;2022-12-29T05:10:57;12.60;99.90
6407;DHT22;3236;51.022;6.818;2022-12-29T05:13:24;12.40;99.90
6407;DHT22;3236;51.022;6.818;2022-12-29T05:15:53;12.30;99.90
6407;DHT22;3236;51.022;6.818;2022-12-29T05:18:20;12.80;99.90
6407;DHT22;3236;51.022;6.818;2022-12-29T05:20:48;12.60;99.90
6407;DHT22;3236;51.022;6.818;2022-12-29T05:23:16;13.00;99.90
6407;DHT22;3236;51.022;6.818;2022-12-29T05:28:12;13.10;99.90
6407;DHT22;3236;51.022;6.818;2022-12-29T05:30:39;12.90;99.90
6407;DHT22;3236;51.022;6.818;2022-12-29T05:33:08;12.70;99.90
6407;DHT22;3236;51.022;6.818;2022-12-29T05:35:37;12.70;99.90
6407;DHT22;3236;51.022;6.818;2022-12-29T05:38:04;12.50;99.90
6407;DHT22;3236;51.022;6.818;2022-12-29T05:42:58;12.60;99.90
6407;DHT22;3236;51.022;6.818;2022-12-29T05:47:53;14.50;99.90
6407;DHT22;3236;51.022;6.818;2022-12-29T05:52:49;12.00;99.90
6407;DHT22;3236;51.022;6.818;2022-12-29T05:55:16;12.30;99.90
6407;DHT22;3236;51.022;6.818;2022-12-29T05:57:43;12.30;99.90
6407;DHT22;3236;51.022;6.818;2022-12-29T06:00:12;12.30;99.90
6407;DHT22;3236;51.022;6.818;2022-12-29T06:02:39;12.40;99.90
6407;DHT22;3236;51.022;6.818;2022-12-29T06:07:36;12.70;99.90
6407;DHT22;3236;51.022;6.818;2022-12-29T06:10:06;13.00;99.90
6407;DHT22;3236;51.022;6.818;2022-12-29T06:12:34;12.80;99.90
6407;DHT22;3236;51.022;6.818;2022-12-29T06:15:01;12.40;99.90
6407;DHT22;3236;51.022;6.818;2022-12-29T06:17:28;13.70;99.90
6407;DHT22;3236;51.022;6.818;2022-12-29T06:19:56;12.30;99.90
6407;DHT22;3236;51.022;6.818;2022-12-29T06:22:24;12.20;99.90
6407;DHT22;3236;51.022;6.818;2022-12-29T06:24:53;12.20;99.90
6407;DHT22;3236;51.022;6.818;2022-12-29T06:29:47;12.40;99.90
6407;DHT22;3236;51.022;6.818;2022-12-29T06:32:15;12.40;99.90
6407;DHT22;3236;51.022;6.818;2022-12-29T06:37:11;12.40;99.90
6407;DHT22;3236;51.022;6.818;2022-12-29T06:39:38;11.80;99.90
6407;DHT22;3236;51.022;6.818;2022-12-29T06:42:09;12.10;99.90
6407;DHT22;3236;51.022;6.818;2022-12-29T06:44:36;12.00;99.90
6407;DHT22;3236;51.022;6.818;2022-12-29T06:47:03;12.00;99.90
6407;DHT22;3236;51.022;6.818;2022-12-29T06:51:58;12.50;99.90
6407;DHT22;3236;51.022;6.818;2022-12-29T06:54:26;12.50;99.90
6407;DHT22;3236;51.022;6.818;2022-12-29T06:56:53;12.20;99.90
6407;DHT22;3236;51.022;6.818;2022-12-29T06:59:23;12.10;99.90
6407;DHT22;3236;51.022;6.818;2022-12-29T07:04:18;11.60;99.90
6407;DHT22;3236;51.022;6.818;2022-12-29T07:06:45;12.00;99.90
6407;DHT22;3236;51.022;6.818;2022-12-29T07:09:12;12.40;99.90
6407;DHT22;3236;51.022;6.818;2022-12-29T07:11:39;12.00;99.90
6407;DHT22;3236;51.022;6.818;2022-12-29T07:14:10;12.00;99.90
6407;DHT22;3236;51.022;6.818;2022-12-29T07:16:39;12.00;99.90
6407;DHT22;3236;51.022;6.818;2022-12-29T07:19:06;11.70;99.90
6407;DHT22;3236;51.022;6.818;2022-12-29T07:21:33;11.90;99.90
6407;DHT22;3236;51.022;6.818;2022-12-29T07:31:24;11.50;99.90
6407;DHT22;3236;51.022;6.818;2022-12-29T07:33:52;11.60;99.90
6407;DHT22;3236;51.022;6.818;2022-12-29T07:36:19;11.30;99.90
6407;DHT22;3236;51.022;6.818;2022-12-29T07:38:47;11.70;99.90
6407;DHT22;3236;51.022;6.818;2022-12-29T07:41:14;12.00;99.90
6407;DHT22;3236;51.022;6.818;2022-12-29T07:43:41;12.30;99.90
6407;DHT22;3236;51.022;6.818;2022-12-29T07:46:08;11.90;99.90
6407;DHT22;3236;51.022;6.818;2022-12-29T07:48:41;11.90;99.90
6407;DHT22;3236;51.022;6.818;2022-12-29T07:51:10;11.90;99.90
6407;DHT22;3236;51.022;6.818;2022-12-29T07:53:37;11.40;99.90
6407;DHT22;3236;51.022;6.818;2022-12-29T07:56:05;11.80;99.90
6407;DHT22;3236;51.022;6.818;2022-12-29T07:58:33;11.80;99.90
6407;DHT22;3236;51.022;6.818;2022-12-29T08:01:00;11.70;99.90
6407;DHT22;3236;51.022;6.818;2022-12-29T08:03:27;11.60;99.90
6407;DHT22;3236;51.022;6.818;2022-12-29T08:05:54;11.60;99.90
6407;DHT22;3236;51.022;6.818;2022-12-29T08:08:24;11.30;99.90
6407;DHT22;3236;51.022;6.818;2022-12-29T08:10:52;11.40;99.90
6407;DHT22;3236;51.022;6.818;2022-12-29T08:13:19;11.40;99.90
6407;DHT22;3236;51.022;6.818;2022-12-29T08:15:46;11.40;99.90
6407;DHT22;3236;51.022;6.818;2022-12-29T08:18:13;11.40;99.90
6407;DHT22;3236;51.022;6.818;2022-12-29T08:20:40;11.50;99.90
6407;DHT22;3236;51.022;6.818;2022-12-29T08:23:07;11.50;99.90
6407;DHT22;3236;51.022;6.818;2022-12-29T08:25:36;11.80;99.90
6407;DHT22;3236;51.022;6.818;2022-12-29T08:28:03;11.80;99.90
6407;DHT22;3236;51.022;6.818;2022-12-29T08:30:30;11.80;99.90
6407;DHT22;3236;51.022;6.818;2022-12-29T08:32:57;11.60;99.90
6407;DHT22;3236;51.022;6.818;2022-12-29T08:35:25;11.70;99.90
6407;DHT22;3236;51.022;6.818;2022-12-29T08:37:52;11.10;99.90
6407;DHT22;3236;51.022;6.818;2022-12-29T08:40:19;11.50;99.90
6407;DHT22;3236;51.022;6.818;2022-12-29T08:42:47;11.40;99.90
6407;DHT22;3236;51.022;6.818;2022-12-29T08:45:15;11.40;99.90
6407;DHT22;3236;51.022;6.818;2022-12-29T08:47:42;11.40;99.90
6407;DHT22;3236;51.022;6.818;2022-12-29T08:50:09;11.10;99.90
6407;DHT22;3236;51.022;6.818;2022-12-29T08:52:36;11.40;99.90
6407;DHT22;3236;51.022;6.818;2022-12-29T08:55:04;11.90;99.90
6407;DHT22;3236;51.022;6.818;2022-12-29T08:57:31;11.30;99.90
6407;DHT22;3236;51.022;6.818;2022-12-29T09:00:00;11.50;99.90
6407;DHT22;3236;51.022;6.818;2022-12-29T09:04:56;11.70;99.90
6407;DHT22;3236;51.022;6.818;2022-12-29T09:07:24;11.70;99.90
6407;DHT22;3236;51.022;6.818;2022-12-29T09:09:52;12.10;99.90
6407;DHT22;3236;51.022;6.818;2022-12-29T09:20:04;11.00;99.90
6407;DHT22;3236;51.022;6.818;2022-12-29T09:22:32;12.00;99.90
6407;DHT22;3236;51.022;6.818;2022-12-29T09:24:59;12.00;99.90
6407;DHT22;3236;51.022;6.818;2022-12-29T09:27:26;11.80;99.90
6407;DHT22;3236;51.022;6.818;2022-12-29T09:32:23;12.10;99.90
6407;DHT22;3236;51.022;6.818;2022-12-29T09:34:51;13.00;99.90
6407;DHT22;3236;51.022;6.818;2022-12-29T09:37:18;12.00;99.90
6407;DHT22;3236;51.022;6.818;2022-12-29T09:39:45;12.00;99.90
6407;DHT22;3236;51.022;6.818;2022-12-29T09:42:18;11.80;99.90
6407;DHT22;3236;51.022;6.818;2022-12-29T09:45:00;11.90;99.90
6407;DHT22;3236;51.022;6.818;2022-12-29T09:47:30;11.90;99.90
6407;DHT22;3236;51.022;6.818;2022-12-29T09:50:03;11.90;99.90
6407;DHT22;3236;51.022;6.818;2022-12-29T09:52:34;12.30;99.90
6407;DHT22;3236;51.022;6.818;2022-12-29T09:55:04;11.90;99.90
6407;DHT22;3236;51.022;6.818;2022-12-29T09:57:38;11.90;99.90
6407;DHT22;3236;51.022;6.818;2022-12-29T10:00:13;11.90;99.90
6407;DHT22;3236;51.022;6.818;2022-12-29T10:02:43;11.80;99.90
6407;DHT22;3236;51.022;6.818;2022-12-29T10:05:30;11.80;99.90
6407;DHT22;3236;51.022;6.818;2022-12-29T10:08:18;11.50;99.90
6407;DHT22;3236;51.022;6.818;2022-12-29T10:10:54;11.90;99.90
6407;DHT22;3236;51.022;6.818;2022-12-29T10:13:30;12.10;99.90
6407;DHT22;3236;51.022;6.818;2022-12-29T10:16:06;12.10;99.90
6407;DHT22;3236;51.022;6.818;2022-12-29T10:18:54;11.80;99.90
6407;DHT22;3236;51.022;6.818;2022-12-29T10:21:33;12.20;99.90
6407;DHT22;3236;51.022;6.818;2022-12-29T10:24:07;11.50;99.90
6407;DHT22;3236;51.022;6.818;2022-12-29T10:26:39;11.80;99.90
6407;DHT22;3236;51.022;6.818;2022-12-29T10:29:16;11.80;99.90
6407;DHT22;3236;51.022;6.818;2022-12-29T10:31:45;11.70;99.90
6407;DHT22;3236;51.022;6.818;2022-12-29T10:34:20;11.80;99.90
6407;DHT22;3236;51.022;6.818;2022-12-29T10:36:49;12.00;99.90
6407;DHT22;3236;51.022;6.818;2022-12-29T10:39:32;11.90;99.90
6407;DHT22;3236;51.022;6.818;2022-12-29T10:42:07;12.10;99.90
6407;DHT22;3236;51.022;6.818;2022-12-29T10:44:37;12.00;99.90
6407;DHT22;3236;51.022;6.818;2022-12-29T10:47:07;12.20;99.90
6407;DHT22;3236;51.022;6.818;2022-12-29T10:49:41;12.20;99.90
6407;DHT22;3236;51.022;6.818;2022-12-29T10:52:10;12.40;99.90
6407;DHT22;3236;51.022;6.818;2022-12-29T10:54:43;12.20;99.90
6407;DHT22;3236;51.022;6.818;2022-12-29T10:57:19;12.60;99.90
6407;DHT22;3236;51.022;6.818;2022-12-29T10:59:48;12.40;99.90
6407;DHT22;3236;51.022;6.818;2022-12-29T11:05:40;12.40;99.90
6407;DHT22;3236;51.022;6.818;2022-12-29T11:08:16;12.90;99.90
6407;DHT22;3236;51.022;6.818;2022-12-29T11:10:45;13.20;99.90
6407;DHT22;3236;51.022;6.818;2022-12-29T11:13:16;13.00;99.90
6407;DHT22;3236;51.022;6.818;2022-12-29T11:15:46;12.90;99.90
6407;DHT22;3236;51.022;6.818;2022-12-29T11:18:24;12.90;99.90
6407;DHT22;3236;51.022;6.818;2022-12-29T11:20:56;13.20;99.90
6407;DHT22;3236;51.022;6.818;2022-12-29T11:23:29;13.00;99.90
6407;DHT22;3236;51.022;6.818;2022-12-29T11:26:16;13.20;99.90
6407;DHT22;3236;51.022;6.818;2022-12-29T11:28:46;12.90;99.90
6407;DHT22;3236;51.022;6.818;2022-12-29T11:31:16;13.40;99.90
6407;DHT22;3236;51.022;6.818;2022-12-29T11:33:44;13.10;99.90
6407;DHT22;3236;51.022;6.818;2022-12-29T11:36:18;12.90;99.90
6407;DHT22;3236;51.022;6.818;2022-12-29T11:38:48;13.10;99.90
6407;DHT22;3236;51.022;6.818;2022-12-29T11:41:21;12.30;99.90
6407;DHT22;3236;51.022;6.818;2022-12-29T11:43:52;12.40;99.90
6407;DHT22;3236;51.022;6.818;2022-12-29T11:46:22;12.20;99.90
6407;DHT22;3236;51.022;6.818;2022-12-29T11:48:50;12.40;99.90
6407;DHT22;3236;51.022;6.818;2022-12-29T11:51:27;12.40;99.90
6407;DHT22;3236;51.022;6.818;2022-12-29T11:53:57;12.00;99.90
6407;DHT22;3236;51.022;6.818;2022-12-29T11:56:35;11.90;99.90
6407;DHT22;3236;51.022;6.818;2022-12-29T11:59:25;12.10;99.90
6407;DHT22;3236;51.022;6.818;2022-12-29T12:02:23;12.10;99.90
6407;DHT22;3236;51.022;6.818;2022-12-29T12:05:08;12.20;99.90
6407;DHT22;3236;51.022;6.818;2022-12-29T12:07:40;12.10;99.90
6407;DHT22;3236;51.022;6.818;2022-12-29T12:10:23;12.20;99.90
6407;DHT22;3236;51.022;6.818;2022-12-29T12:12:58;12.30;99.90
6407;DHT22;3236;51.022;6.818;2022-12-29T12:15:31;12.40;99.90
6407;DHT22;3236;51.022;6.818;2022-12-29T12:18:11;13.50;99.90
6407;DHT22;3236;51.022;6.818;2022-12-29T12:20:45;12.60;99.90
6407;DHT22;3236;51.022;6.818;2022-12-29T12:28:40;12.20;99.90
6407;DHT22;3236;51.022;6.818;2022-12-29T12:31:21;12.80;99.90
6407;DHT22;3236;51.022;6.818;2022-12-29T12:33:55;12.40;99.90
6407;DHT22;3236;51.022;6.818;2022-12-29T12:36:39;12.40;99.90
6407;DHT22;3236;51.022;6.818;2022-12-29T12:39:25;12.90;99.90
6407;DHT22;3236;51.022;6.818;2022-12-29T12:42:02;12.80;99.90
6407;DHT22;3236;51.022;6.818;2022-12-29T12:44:39;12.80;99.90
6407;DHT22;3236;51.022;6.818;2022-12-29T12:47:27;12.20;99.90
6407;DHT22;3236;51.022;6.818;2022-12-29T12:50:26;11.90;99.90
6407;DHT22;3236;51.022;6.818;2022-12-29T12:53:08;11.80;99.90
6407;DHT22;3236;51.022;6.818;2022-12-29T12:56:07;12.00;99.90
6407;DHT22;3236;51.022;6.818;2022-12-29T12:58:52;12.10;99.90
6407;DHT22;3236;51.022;6.818;2022-12-29T13:01:33;12.60;99.90
6407;DHT22;3236;51.022;6.818;2022-12-29T13:04:37;10.30;99.90
6407;DHT22;3236;51.022;6.818;2022-12-29T13:07:16;11.50;99.90
6407;DHT22;3236;51.022;6.818;2022-12-29T13:10:16;12.20;99.90
6407;DHT22;3236;51.022;6.818;2022-12-29T13:12:53;12.20;99.90
6407;DHT22;3236;51.022;6.818;2022-12-29T13:15:37;11.90;99.90
6407;DHT22;3236;51.022;6.818;2022-12-29T13:18:19;11.70;99.90
6407;DHT22;3236;51.022;6.818;2022-12-29T13:20:55;11.80;99.90
6407;DHT22;3236;51.022;6.818;2022-12-29T13:23:32;11.60;99.90
6407;DHT22;3236;51.022;6.818;2022-12-29T13:26:06;11.70;99.90
6407;DHT22;3236;51.022;6.818;2022-12-29T13:28:49;11.90;99.90
6407;DHT22;3236;51.022;6.818;2022-12-29T13:31:27;12.70;99.90
6407;DHT22;3236;51.022;6.818;2022-12-29T13:34:00;11.50;99.90
6407;DHT22;3236;51.022;6.818;2022-12-29T13:36:41;11.60;99.90
6407;DHT22;3236;51.022;6.818;2022-12-29T13:39:15;11.60;99.90
6407;DHT22;3236;51.022;6.818;2022-12-29T13:41:45;11.60;99.90
6407;DHT22;3236;51.022;6.818;2022-12-29T13:44:17;11.50;99.90
6407;DHT22;3236;51.022;6.818;2022-12-29T13:46:45;11.50;99.90
6407;DHT22;3236;51.022;6.818;2022-12-29T13:49:17;11.30;99.90
6407;DHT22;3236;51.022;6.818;2022-12-29T13:57:10;11.60;99.90
6407;DHT22;3236;51.022;6.818;2022-12-29T13:59:49;11.50;99.90
6407;DHT22;3236;51.022;6.818;2022-12-29T14:02:26;11.30;99.90
6407;DHT22;3236;51.022;6.818;2022-12-29T14:05:00;11.30;99.90
6407;DHT22;3236;51.022;6.818;2022-12-29T14:07:37;11.40;99.90
6407;DHT22;3236;51.022;6.818;2022-12-29T14:10:17;11.40;99.90
6407;DHT22;3236;51.022;6.818;2022-12-29T14:13:00;11.50;99.90
6407;DHT22;3236;51.022;6.818;2022-12-29T14:15:30;11.20;99.90
6407;DHT22;3236;51.022;6.818;2022-12-29T14:18:09;11.20;99.90
6407;DHT22;3236;51.022;6.818;2022-12-29T14:20:37;11.30;99.90
6407;DHT22;3236;51.022;6.818;2022-12-29T14:26:18;11.20;99.90
6407;DHT22;3236;51.022;6.818;2022-12-29T14:29:22;10.90;99.90
6407;DHT22;3236;51.022;6.818;2022-12-29T14:32:35;11.30;99.90
6407;DHT22;3236;51.022;6.818;2022-12-29T14:35:38;11.20;99.90
6407;DHT22;3236;51.022;6.818;2022-12-29T14:38:29;11.30;99.90
6407;DHT22;3236;51.022;6.818;2022-12-29T14:41:18;11.10;99.90
6407;DHT22;3236;51.022;6.818;2022-12-29T14:44:01;11.10;99.90
6407;DHT22;3236;51.022;6.818;2022-12-29T14:46:44;11.10;99.90
6407;DHT22;3236;51.022;6.818;2022-12-29T14:49:18;10.00;99.90
6407;DHT22;3236;51.022;6.818;2022-12-29T14:51:46;11.10;99.90
6407;DHT22;3236;51.022;6.818;2022-12-29T14:54:52;11.10;99.90
6407;DHT22;3236;51.022;6.818;2022-12-29T14:57:26;11.10;99.90
6407;DHT22;3236;51.022;6.818;2022-12-29T14:59:57;11.10;99.90
6407;DHT22;3236;51.022;6.818;2022-12-29T15:02:33;11.20;99.90
6407;DHT22;3236;51.022;6.818;2022-12-29T15:05:02;11.00;99.90
6407;DHT22;3236;51.022;6.818;2022-12-29T15:07:31;11.00;99.90
6407;DHT22;3236;51.022;6.818;2022-12-29T15:10:05;11.10;99.90
6407;DHT22;3236;51.022;6.818;2022-12-29T15:12:38;11.40;99.90
6407;DHT22;3236;51.022;6.818;2022-12-29T15:15:19;11.00;99.90
6407;DHT22;3236;51.022;6.818;2022-12-29T15:17:47;11.00;99.90
6407;DHT22;3236;51.022;6.818;2022-12-29T15:20:22;11.00;99.90
6407;DHT22;3236;51.022;6.818;2022-12-29T15:22:57;10.90;99.90
6407;DHT22;3236;51.022;6.818;2022-12-29T15:27:55;10.80;99.90
6407;DHT22;3236;51.022;6.818;2022-12-29T15:30:23;11.10;99.90
6407;DHT22;3236;51.022;6.818;2022-12-29T15:32:58;10.70;99.90
6407;DHT22;3236;51.022;6.818;2022-12-29T15:35:30;10.70;99.90
6407;DHT22;3236;51.022;6.818;2022-12-29T15:37:59;10.70;99.90
6407;DHT22;3236;51.022;6.818;2022-12-29T15:40:30;10.70;99.90
6407;DHT22;3236;51.022;6.818;2022-12-29T15:43:10;10.70;99.90
6407;DHT22;3236;51.022;6.818;2022-12-29T15:45:40;10.70;99.90
6407;DHT22;3236;51.022;6.818;2022-12-29T15:48:14;10.70;99.90
6407;DHT22;3236;51.022;6.818;2022-12-29T15:50:44;10.30;99.90
6407;DHT22;3236;51.022;6.818;2022-12-29T15:53:18;10.20;99.90
6407;DHT22;3236;51.022;6.818;2022-12-29T15:55:50;10.30;99.90
6407;DHT22;3236;51.022;6.818;2022-12-29T15:58:20;10.40;99.90
6407;DHT22;3236;51.022;6.818;2022-12-29T16:00:49;10.40;99.90
6407;DHT22;3236;51.022;6.818;2022-12-29T16:03:19;10.30;99.90
6407;DHT22;3236;51.022;6.818;2022-12-29T16:05:53;10.30;99.90
6407;DHT22;3236;51.022;6.818;2022-12-29T16:08:32;9.90;99.90
6407;DHT22;3236;51.022;6.818;2022-12-29T16:11:04;10.10;99.90
6407;DHT22;3236;51.022;6.818;2022-12-29T16:13:35;10.00;99.90
6407;DHT22;3236;51.022;6.818;2022-12-29T16:16:14;10.00;99.90
6407;DHT22;3236;51.022;6.818;2022-12-29T16:18:44;10.10;99.90
6407;DHT22;3236;51.022;6.818;2022-12-29T16:21:18;10.20;99.90
6407;DHT22;3236;51.022;6.818;2022-12-29T16:23:49;9.80;99.90
6407;DHT22;3236;51.022;6.818;2022-12-29T16:26:19;9.90;99.90
6407;DHT22;3236;51.022;6.818;2022-12-29T16:28:48;9.70;99.90
6407;DHT22;3236;51.022;6.818;2022-12-29T16:31:20;9.40;99.90
6407;DHT22;3236;51.022;6.818;2022-12-29T16:33:50;9.90;99.90
6407;DHT22;3236;51.022;6.818;2022-12-29T16:36:27;9.60;99.90
6407;DHT22;3236;51.022;6.818;2022-12-29T16:41:47;9.80;99.90
6407;DHT22;3236;51.022;6.818;2022-12-29T16:44:17;9.60;99.90
6407;DHT22;3236;51.022;6.818;2022-12-29T16:46:58;9.90;99.90
6407;DHT22;3236;51.022;6.818;2022-12-29T16:49:30;9.70;99.90
6407;DHT22;3236;51.022;6.818;2022-12-29T16:51:59;11.50;99.90
6407;DHT22;3236;51.022;6.818;2022-12-29T16:54:31;9.60;99.90
6407;DHT22;3236;51.022;6.818;2022-12-29T16:59:32;9.80;99.90
6407;DHT22;3236;51.022;6.818;2022-12-29T17:02:05;9.40;99.90
6407;DHT22;3236;51.022;6.818;2022-12-29T17:04:32;9.60;99.90
6407;DHT22;3236;51.022;6.818;2022-12-29T17:07:01;9.30;99.90
6407;DHT22;3236;51.022;6.818;2022-12-29T17:11:59;9.60;99.90
6407;DHT22;3236;51.022;6.818;2022-12-29T17:14:40;9.60;99.90
6407;DHT22;3236;51.022;6.818;2022-12-29T17:17:15;9.20;99.90
6407;DHT22;3236;51.022;6.818;2022-12-29T17:19:46;9.20;99.90
6407;DHT22;3236;51.022;6.818;2022-12-29T17:22:18;9.40;99.90
6407;DHT22;3236;51.022;6.818;2022-12-29T17:24:45;9.80;99.90
6407;DHT22;3236;51.022;6.818;2022-12-29T17:27:26;9.50;99.90
6407;DHT22;3236;51.022;6.818;2022-12-29T17:29:57;9.60;99.90
6407;DHT22;3236;51.022;6.818;2022-12-29T17:32:25;9.60;99.90
6407;DHT22;3236;51.022;6.818;2022-12-29T17:34:53;9.40;99.90
6407;DHT22;3236;51.022;6.818;2022-12-29T17:37:32;9.50;99.90
6407;DHT22;3236;51.022;6.818;2022-12-29T17:40:05;9.50;99.90
6407;DHT22;3236;51.022;6.818;2022-12-29T17:42:34;9.80;99.90
6407;DHT22;3236;51.022;6.818;2022-12-29T17:45:03;9.70;99.90
6407;DHT22;3236;51.022;6.818;2022-12-29T17:47:31;9.40;99.90
6407;DHT22;3236;51.022;6.818;2022-12-29T17:49:59;9.20;99.90
6407;DHT22;3236;51.022;6.818;2022-12-29T17:52:32;9.50;99.90
6407;DHT22;3236;51.022;6.818;2022-12-29T17:54:59;9.60;99.90
6407;DHT22;3236;51.022;6.818;2022-12-29T17:57:26;9.40;99.90
6407;DHT22;3236;51.022;6.818;2022-12-29T17:59:53;9.40;99.90
6407;DHT22;3236;51.022;6.818;2022-12-29T18:02:26;9.40;99.90
6407;DHT22;3236;51.022;6.818;2022-12-29T18:04:53;9.40;99.90
6407;DHT22;3236;51.022;6.818;2022-12-29T18:07:21;9.40;99.90
6407;DHT22;3236;51.022;6.818;2022-12-29T18:09:50;9.10;99.90
6407;DHT22;3236;51.022;6.818;2022-12-29T18:12:30;9.10;99.90
6407;DHT22;3236;51.022;6.818;2022-12-29T18:14:58;9.20;99.90